Time;durP1;ratioP1;P1;durP2;ratioP2;P2;SDS_P1;SDS_P2;PMS_P1;PMS_P2;Temp;Humidity;BMP_temperature;BMP_pressure;BME280_temperature;BME280_humidity;BME280_pressure;Samples;Min_cycle;Max_cycle;Signal;HPM_P1;HPM_P2
2024/03/06 00:00:28;;;;;;;6.43;4.80;;;6.40;15.80;;;;;;5114684;28;20426;-68
2024/03/06 00:02:55;;;;;;;6.50;5.27;;;6.40;15.80;;;;;;5115052;28;20198;-69
2024/03/06 00:05:20;;;;;;;6.27;4.87;;;6.40;17.40;;;;;;5114552;28;20257;-69
2024/03/06 00:07:46;;;;;;;5.93;4.60;;;6.40;16.80;;;;;;5114969;28;20446;-67
2024/03/06 00:10:11;;;;;;;7.53;5.10;;;6.30;17.10;;;;;;5114747;28;20200;-68
2024/03/06 00:12:37;;;;;;;5.67;4.37;;;6.30;18.20;;;;;;5114825;28;20226;-69
2024/03/06 00:15:03;;;;;;;8.53;5.23;;;6.30;17.70;;;;;;5114362;28;20292;-67
2024/03/06 00:17:28;;;;;;;8.90;4.87;;;6.30;18.10;;;;;;5114676;28;20176;-68
2024/03/06 00:19:54;;;;;;;6.10;3.83;;;6.40;18.60;;;;;;5114659;28;20529;-68
2024/03/06 00:22:20;;;;;;;5.53;4.47;;;6.30;18.50;;;;;;5114553;28;20173;-68
2024/03/06 00:24:46;;;;;;;8.67;5.90;;;6.20;18.80;;;;;;5114744;28;20176;-68
2024/03/06 00:27:13;;;;;;;7.63;5.57;;;6.20;19.90;;;;;;5114846;28;20422;-68
2024/03/06 00:29:39;;;;;;;7.80;5.10;;;6.20;20.90;;;;;;5095804;28;20526;-68
2024/03/06 00:32:05;;;;;;;8.00;5.63;;;6.30;21.00;;;;;;5114232;28;20900;-68
2024/03/06 00:34:30;;;;;;;10.03;6.00;;;6.30;22.00;;;;;;5113918;28;20252;-68
2024/03/06 00:36:56;;;;;;;6.83;5.73;;;6.30;22.70;;;;;;5096094;28;20549;-68
2024/03/06 00:39:21;;;;;;;6.77;5.57;;;6.30;23.90;;;;;;5114383;28;20203;-69
2024/03/06 00:41:47;;;;;;;6.70;4.30;;;6.40;23.20;;;;;;5096146;28;20271;-69
2024/03/06 00:44:13;;;;;;;6.40;5.10;;;6.40;23.50;;;;;;5114062;28;20172;-68
2024/03/06 00:46:39;;;;;;;5.40;4.90;;;6.40;23.10;;;;;;5114155;28;20186;-68
2024/03/06 00:49:04;;;;;;;14.30;4.80;;;6.40;22.70;;;;;;5114538;28;20855;-67
2024/03/06 00:51:31;;;;;;;9.43;4.90;;;6.50;23.20;;;;;;5114192;28;20636;-69
2024/03/06 00:53:57;;;;;;;7.33;4.80;;;6.40;23.00;;;;;;5113822;28;20168;-68
2024/03/06 00:56:22;;;;;;;4.80;4.03;;;6.40;22.70;;;;;;5113985;28;20460;-68
2024/03/06 00:58:48;;;;;;;6.63;5.10;;;6.40;23.60;;;;;;5113205;28;20279;-69
2024/03/06 01:01:15;;;;;;;5.80;5.13;;;6.40;24.30;;;;;;5113854;28;20624;-67
2024/03/06 01:03:40;;;;;;;8.10;5.53;;;6.40;23.70;;;;;;5113694;28;20172;-68
2024/03/06 01:06:06;;;;;;;5.50;4.40;;;6.40;24.00;;;;;;5095312;28;20449;-68
2024/03/06 01:08:31;;;;;;;7.53;5.60;;;6.40;23.90;;;;;;5113642;28;20246;-68
2024/03/06 01:10:57;;;;;;;9.30;5.57;;;6.40;24.00;;;;;;5113631;28;20633;-68
2024/03/06 01:13:24;;;;;;;6.80;4.67;;;6.40;23.90;;;;;;5113376;28;20417;-67
2024/03/06 01:15:49;;;;;;;8.00;5.40;;;6.40;24.20;;;;;;5113336;28;20196;-68
2024/03/06 01:18:15;;;;;;;7.77;4.53;;;6.40;24.60;;;;;;5113640;28;20536;-69
2024/03/06 01:20:40;;;;;;;6.27;4.43;;;6.40;24.40;;;;;;5113500;28;20201;-68
2024/03/06 01:23:06;;;;;;;6.47;5.03;;;6.40;24.40;;;;;;5094966;28;20176;-68
2024/03/06 01:25:32;;;;;;;9.40;4.33;;;6.40;24.60;;;;;;5095017;28;20183;-69
2024/03/06 01:27:57;;;;;;;11.33;4.73;;;6.40;25.20;;;;;;5113392;28;20433;-68
2024/03/06 01:30:23;;;;;;;6.70;4.33;;;6.40;25.00;;;;;;5124879;22;20228;-72
2024/03/06 01:32:49;;;;;;;4.93;3.70;;;6.40;24.50;;;;;;5094372;28;20623;-72
2024/03/06 01:35:14;;;;;;;6.90;5.00;;;6.30;25.10;;;;;;5094342;28;20217;-71
2024/03/06 01:37:40;;;;;;;5.80;5.10;;;6.30;26.60;;;;;;5093363;28;20177;-71
2024/03/06 01:40:07;;;;;;;4.90;4.40;;;6.30;26.90;;;;;;5094654;28;20194;-71
2024/03/06 01:42:33;;;;;;;5.13;4.37;;;6.30;26.80;;;;;;5094808;28;20198;-72
2024/03/06 01:44:59;;;;;;;6.63;4.77;;;6.20;27.70;;;;;;5094734;28;20403;-71
2024/03/06 01:47:28;;;;;;;6.73;4.20;;;6.30;28.40;;;;;;5094146;28;20419;-72
2024/03/06 01:49:53;;;;;;;6.80;4.53;;;6.30;27.50;;;;;;5093957;28;20194;-71
2024/03/06 01:52:22;;;;;;;6.03;4.90;;;6.30;27.20;;;;;;5093863;28;20472;-71
2024/03/06 01:54:49;;;;;;;4.50;4.10;;;6.30;27.30;;;;;;5093800;28;20213;-71
2024/03/06 01:57:17;;;;;;;5.67;4.43;;;6.20;27.40;;;;;;5092740;28;20416;-70
2024/03/06 01:59:43;;;;;;;6.93;5.60;;;6.20;27.90;;;;;;5093639;28;20427;-72
2024/03/06 02:02:11;;;;;;;9.23;5.90;;;6.30;26.90;;;;;;5094332;28;20411;-70
2024/03/06 02:04:37;;;;;;;7.60;5.20;;;6.20;27.70;;;;;;5093308;28;20424;-71
2024/03/06 02:07:05;;;;;;;6.50;5.10;;;6.20;28.00;;;;;;5094328;28;20490;-72
2024/03/06 02:09:30;;;;;;;6.80;4.30;;;6.30;27.40;;;;;;5092177;28;20446;-71
2024/03/06 02:11:56;;;;;;;8.70;5.30;;;6.30;28.50;;;;;;5092025;28;20914;-71
2024/03/06 02:14:23;;;;;;;6.50;5.20;;;6.30;27.60;;;;;;5092001;28;20177;-72
2024/03/06 02:16:48;;;;;;;5.47;4.27;;;6.40;27.20;;;;;;5092956;28;20204;-71
2024/03/06 02:19:14;;;;;;;5.93;4.93;;;6.30;27.60;;;;;;5093244;28;20807;-71
2024/03/06 02:21:39;;;;;;;6.80;4.63;;;6.30;27.90;;;;;;5093080;28;20640;-72
2024/03/06 02:24:05;;;;;;;6.80;5.33;;;6.40;27.20;;;;;;5092744;28;20700;-72
2024/03/06 02:26:31;;;;;;;6.50;5.10;;;6.40;26.50;;;;;;5093217;28;20596;-70
2024/03/06 02:28:59;;;;;;;6.00;4.73;;;6.30;27.00;;;;;;5092955;28;20682;-71
2024/03/06 02:31:25;;;;;;;5.67;5.07;;;6.30;27.50;;;;;;5093413;28;20618;-71
2024/03/06 02:33:50;;;;;;;7.20;5.40;;;6.30;27.10;;;;;;5092734;28;20403;-71
2024/03/06 02:36:17;;;;;;;6.67;5.77;;;6.30;27.20;;;;;;5091720;28;20256;-72
2024/03/06 02:38:43;;;;;;;6.20;5.20;;;6.20;27.80;;;;;;5092686;28;20177;-71
2024/03/06 02:41:10;;;;;;;7.73;4.73;;;6.20;29.10;;;;;;5091482;28;20435;-72
2024/03/06 02:43:36;;;;;;;5.20;4.20;;;6.20;29.10;;;;;;5092867;28;20399;-71
2024/03/06 02:46:02;;;;;;;6.60;4.60;;;6.00;29.90;;;;;;5091429;28;20423;-71
2024/03/06 02:48:28;;;;;;;5.57;3.67;;;6.00;32.40;;;;;;5091458;28;20415;-72
2024/03/06 02:50:53;;;;;;;6.97;4.43;;;5.90;33.20;;;;;;5092486;28;20211;-71
2024/03/06 02:53:19;;;;;;;9.43;4.97;;;5.90;33.70;;;;;;5092554;28;20173;-72
2024/03/06 02:55:45;;;;;;;5.60;4.17;;;6.00;32.90;;;;;;5090992;28;20550;-72
2024/03/06 02:58:10;;;;;;;6.67;4.20;;;6.00;33.00;;;;;;5092492;28;20174;-72
2024/03/06 03:00:36;;;;;;;5.17;3.70;;;6.00;33.10;;;;;;5092373;28;20185;-72
2024/03/06 03:03:01;;;;;;;7.50;4.90;;;6.00;32.30;;;;;;5092580;28;20166;-71
2024/03/06 03:05:28;;;;;;;5.57;4.30;;;6.00;32.90;;;;;;5093236;28;20209;-71
2024/03/06 03:07:53;;;;;;;6.33;4.87;;;6.00;32.40;;;;;;5091946;28;20181;-72
2024/03/06 03:10:19;;;;;;;5.83;5.23;;;6.00;31.90;;;;;;5093988;28;21012;-72
2024/03/06 03:12:45;;;;;;;6.13;4.30;;;6.00;31.70;;;;;;5092200;28;20431;-73
2024/03/06 03:15:10;;;;;;;5.73;4.20;;;6.00;31.90;;;;;;5093138;28;20520;-70
2024/03/06 03:17:36;;;;;;;8.83;5.10;;;6.00;32.30;;;;;;5095894;28;20434;-71
2024/03/06 03:20:10;;;;;;;5.13;4.43;;;6.00;30.70;;;;;;5093190;28;20206;-70
2024/03/06 03:22:39;;;;;;;7.87;4.87;;;6.10;30.20;;;;;;5092984;28;20176;-70
2024/03/06 03:25:13;;;;;;;5.53;4.83;;;5.90;30.70;;;;;;5092629;28;20411;-70
2024/03/06 03:27:43;;;;;;;7.80;5.03;;;5.90;31.80;;;;;;5094251;28;20439;-73
2024/03/06 03:30:12;;;;;;;5.30;4.37;;;5.80;32.60;;;;;;5092717;28;20454;-72
2024/03/06 03:32:37;;;;;;;7.43;5.33;;;5.90;33.60;;;;;;5093576;28;20470;-72
2024/03/06 03:35:07;;;;;;;6.43;5.07;;;6.00;32.50;;;;;;5091520;28;20489;-73
2024/03/06 03:37:33;;;;;;;5.70;4.67;;;6.00;32.00;;;;;;5093123;28;20174;-73
2024/03/06 03:39:59;;;;;;;5.70;4.60;;;6.00;31.30;;;;;;5092321;28;20518;-74
2024/03/06 03:42:24;;;;;;;5.17;4.60;;;6.10;37.20;;;;;;5091705;28;20882;-73
2024/03/06 03:44:50;;;;;;;5.93;3.93;;;6.10;46.30;;;;;;5093285;28;20173;-73
2024/03/06 03:47:16;;;;;;;7.87;4.53;;;6.10;45.90;;;;;;5092553;28;20683;-72
2024/03/06 03:49:42;;;;;;;6.20;4.77;;;6.10;46.30;;;;;;5091618;28;20276;-73
2024/03/06 03:52:08;;;;;;;7.00;4.50;;;6.10;46.10;;;;;;5091428;28;20178;-73
2024/03/06 03:54:34;;;;;;;6.13;4.57;;;6.10;47.50;;;;;;5092972;28;20933;-74
2024/03/06 03:57:00;;;;;;;6.30;5.33;;;6.00;47.20;;;;;;5092497;28;20161;-74
2024/03/06 03:59:25;;;;;;;5.23;4.50;;;6.00;48.10;;;;;;5092698;28;20508;-72
2024/03/06 04:01:51;;;;;;;7.30;4.90;;;6.10;48.70;;;;;;5092520;28;20671;-72
2024/03/06 04:04:17;;;;;;;6.53;4.97;;;6.00;45.90;;;;;;5092137;28;20548;-71
2024/03/06 04:06:43;;;;;;;6.10;4.40;;;6.10;51.90;;;;;;5090630;28;20510;-71
2024/03/06 04:09:11;;;;;;;5.87;5.20;;;6.00;56.80;;;;;;5090703;28;20178;-70
2024/03/06 04:11:37;;;;;;;8.50;4.97;;;5.90;57.00;;;;;;5090505;28;20216;-71
2024/03/06 04:14:05;;;;;;;7.67;5.37;;;6.00;57.10;;;;;;5091922;28;20451;-71
2024/03/06 04:16:32;;;;;;;6.13;4.93;;;6.00;58.80;;;;;;5090333;28;21051;-71
2024/03/06 04:18:57;;;;;;;7.63;6.27;;;6.00;58.90;;;;;;5090590;28;20420;-71
2024/03/06 04:21:23;;;;;;;6.70;4.43;;;6.10;60.00;;;;;;5092008;28;20241;-72
2024/03/06 04:23:48;;;;;;;5.90;4.60;;;6.00;58.60;;;;;;5092238;28;20213;-71
2024/03/06 04:26:15;;;;;;;6.63;6.03;;;5.90;57.00;;;;;;5094530;28;20184;-71
2024/03/06 04:28:40;;;;;;;6.20;4.67;;;5.80;58.50;;;;;;5092122;28;20178;-71
2024/03/06 04:31:06;;;;;;;5.90;4.87;;;5.80;60.00;;;;;;5092013;28;20810;-70
2024/03/06 04:33:32;;;;;;;8.13;5.23;;;6.00;60.00;;;;;;5090212;28;20537;-72
2024/03/06 04:35:57;;;;;;;5.33;4.70;;;6.00;58.80;;;;;;5093723;28;20204;-69
2024/03/06 04:38:23;;;;;;;9.20;4.70;;;6.10;58.00;;;;;;5094271;28;20419;-70
2024/03/06 04:40:48;;;;;;;6.03;4.63;;;6.10;56.20;;;;;;5095483;28;20221;-69
2024/03/06 04:43:14;;;;;;;5.03;4.40;;;6.10;54.80;;;;;;5094204;28;20201;-71
2024/03/06 04:45:39;;;;;;;10.53;5.30;;;6.10;56.40;;;;;;5095411;28;20177;-71
2024/03/06 04:48:06;;;;;;;6.60;5.20;;;6.00;55.90;;;;;;5095723;28;20219;-71
2024/03/06 04:50:32;;;;;;;5.93;4.97;;;6.10;55.70;;;;;;5094228;28;20227;-71
2024/03/06 04:52:58;;;;;;;7.20;5.80;;;6.00;55.50;;;;;;5095463;28;20434;-70
2024/03/06 04:55:25;;;;;;;5.93;5.33;;;6.10;55.70;;;;;;5094205;28;20454;-70
2024/03/06 04:57:52;;;;;;;4.60;3.93;;;6.00;53.90;;;;;;5095383;28;20166;-71
2024/03/06 05:00:18;;;;;;;5.40;4.57;;;5.80;55.40;;;;;;5093554;28;20972;-70
2024/03/06 05:02:44;;;;;;;7.47;4.97;;;5.90;54.20;;;;;;5094984;28;20779;-71
2024/03/06 05:05:10;;;;;;;6.90;4.40;;;5.80;55.00;;;;;;5094861;28;20507;-70
2024/03/06 05:07:35;;;;;;;5.10;4.60;;;5.80;54.10;;;;;;5093899;28;20513;-71
2024/03/06 05:10:01;;;;;;;7.23;6.40;;;5.70;53.00;;;;;;5094677;28;20215;-71
2024/03/06 05:12:27;;;;;;;6.20;5.10;;;5.70;53.50;;;;;;5094775;28;20177;-71
2024/03/06 05:14:53;;;;;;;6.57;4.73;;;5.70;52.30;;;;;;5094470;28;20193;-71
2024/03/06 05:17:20;;;;;;;6.87;4.50;;;5.60;53.60;;;;;;5094575;28;20423;-70
2024/03/06 05:19:47;;;;;;;6.17;4.60;;;5.60;54.40;;;;;;5093305;28;20427;-71
2024/03/06 05:22:13;;;;;;;6.80;4.43;;;5.70;54.20;;;;;;5094447;28;20417;-70
2024/03/06 05:24:39;;;;;;;6.17;4.87;;;5.70;55.10;;;;;;5092794;28;20415;-71
2024/03/06 05:27:05;;;;;;;8.17;6.67;;;5.70;55.50;;;;;;5093098;28;20504;-72
2024/03/06 05:29:36;;;;;;;6.20;4.87;;;5.80;55.80;;;;;;5094136;28;20208;-70
2024/03/06 05:32:03;;;;;;;9.57;6.07;;;5.80;56.70;;;;;;5092919;28;20786;-70
2024/03/06 05:34:29;;;;;;;7.60;6.20;;;5.80;58.50;;;;;;5092376;28;20506;-69
2024/03/06 05:36:55;;;;;;;6.33;5.50;;;5.80;57.00;;;;;;5092835;28;20459;-71
2024/03/06 05:39:21;;;;;;;7.00;6.07;;;5.90;57.50;;;;;;5094377;28;20473;-70
2024/03/06 05:41:46;;;;;;;8.10;7.30;;;5.90;56.20;;;;;;5092667;28;20177;-70
2024/03/06 05:44:12;;;;;;;8.67;6.10;;;5.90;56.10;;;;;;5092450;28;20174;-69
2024/03/06 05:46:38;;;;;;;7.37;5.93;;;5.90;56.70;;;;;;5093865;28;20220;-70
2024/03/06 05:49:07;;;;;;;9.70;5.43;;;6.00;55.90;;;;;;5093703;28;20169;-72
2024/03/06 05:51:33;;;;;;;6.20;5.27;;;6.00;56.20;;;;;;5092656;28;20260;-70
2024/03/06 05:53:58;;;;;;;6.93;5.87;;;6.00;55.30;;;;;;5093742;28;20450;-71
2024/03/06 05:56:24;;;;;;;6.07;5.47;;;6.00;55.60;;;;;;5092273;28;20561;-72
2024/03/06 05:58:49;;;;;;;7.80;5.60;;;6.10;56.00;;;;;;5093699;28;20166;-72
2024/03/06 06:01:18;;;;;;;7.30;6.23;;;6.10;55.20;;;;;;5092220;28;20197;-73
2024/03/06 06:03:44;;;;;;;8.23;5.57;;;6.00;55.70;;;;;;5091979;28;20656;-71
2024/03/06 06:06:09;;;;;;;11.10;5.90;;;6.00;57.20;;;;;;5093456;28;20446;-73
2024/03/06 06:08:38;;;;;;;6.40;4.90;;;6.00;55.50;;;;;;5092337;28;20267;-71
2024/03/06 06:11:04;;;;;;;7.53;5.40;;;5.90;55.80;;;;;;5093281;28;20193;-71
2024/03/06 06:13:30;;;;;;;6.50;4.80;;;5.90;57.20;;;;;;5092114;28;20491;-72
2024/03/06 06:15:58;;;;;;;8.30;4.77;;;5.80;57.50;;;;;;5092095;28;20402;-72
2024/03/06 06:18:23;;;;;;;8.30;5.87;;;5.80;55.90;;;;;;5092055;28;20420;-71
2024/03/06 06:20:49;;;;;;;9.00;5.33;;;5.70;55.60;;;;;;5092052;28;20439;-71
2024/03/06 06:23:14;;;;;;;5.43;4.83;;;5.70;56.40;;;;;;5093116;28;20644;-71
2024/03/06 06:25:40;;;;;;;7.23;4.43;;;5.70;56.60;;;;;;5092780;28;20628;-71
2024/03/06 06:28:10;;;;;;;8.80;5.80;;;5.70;57.50;;;;;;5092007;28;20178;-72
2024/03/06 06:30:38;;;;;;;8.93;5.83;;;5.80;57.40;;;;;;5093047;28;20205;-73
2024/03/06 06:33:05;;;;;;;6.73;4.80;;;5.70;57.60;;;;;;5093152;28;20419;-73
2024/03/06 06:35:30;;;;;;;14.03;5.53;;;5.70;58.40;;;;;;5091875;28;20872;-72
2024/03/06 06:37:56;;;;;;;8.00;5.93;;;5.80;58.50;;;;;;5093140;28;20411;-73
2024/03/06 06:40:22;;;;;;;6.30;5.70;;;5.80;56.70;;;;;;5093175;28;20193;-72
2024/03/06 06:42:51;;;;;;;6.03;4.73;;;5.80;56.60;;;;;;5094158;28;20632;-72
2024/03/06 06:45:18;;;;;;;7.47;5.70;;;5.80;57.10;;;;;;5093947;28;20187;-72
2024/03/06 06:47:44;;;;;;;6.23;5.63;;;5.90;55.80;;;;;;5093098;28;20438;-73
2024/03/06 06:50:11;;;;;;;9.97;5.73;;;5.90;56.80;;;;;;5085707;28;20462;-73
2024/03/06 06:52:40;;;;;;;7.40;6.60;;;5.90;57.50;;;;;;5083225;28;20430;-72
2024/03/06 06:55:07;;;;;;;7.87;5.57;;;6.00;53.90;;;;;;5092087;28;20446;-72
2024/03/06 06:57:38;;;;;;;7.00;5.47;;;6.00;56.40;;;;;;5094285;28;20533;-73
2024/03/06 07:00:10;;;;;;;5.60;5.00;;;6.10;56.70;;;;;;5095006;28;20957;-73
2024/03/06 07:02:42;;;;;;;7.43;5.33;;;6.10;29.80;;;;;;5095679;28;20526;-72
2024/03/06 07:05:10;;;;;;;8.83;6.03;;;6.10;29.70;;;;;;5095792;28;20423;-73
2024/03/06 07:07:36;;;;;;;7.93;5.60;;;5.90;30.00;;;;;;5094945;28;20512;-73
2024/03/06 07:10:03;;;;;;;6.60;5.23;;;5.90;32.00;;;;;;5092818;28;20443;-73
2024/03/06 07:12:29;;;;;;;8.23;5.67;;;5.80;32.60;;;;;;5094160;28;20424;-72
2024/03/06 07:14:55;;;;;;;7.97;4.93;;;5.80;32.90;;;;;;5095674;28;20455;-71
2024/03/06 07:17:21;;;;;;;5.77;4.67;;;5.90;33.70;;;;;;5077460;28;20467;-70
2024/03/06 07:19:47;;;;;;;8.50;5.87;;;5.90;32.80;;;;;;5074998;28;20436;-69
2024/03/06 07:22:13;;;;;;;6.80;4.93;;;6.00;33.70;;;;;;5076039;28;20188;-70
2024/03/06 07:24:38;;;;;;;5.93;5.07;;;5.80;31.00;;;;;;5079179;28;20182;-70
2024/03/06 07:27:05;;;;;;;7.17;5.33;;;5.90;34.50;;;;;;5092623;28;20185;-70
2024/03/06 07:29:30;;;;;;;6.70;4.83;;;5.90;36.80;;;;;;5093139;22;20268;-69
2024/03/06 07:31:56;;;;;;;6.73;5.10;;;5.90;34.60;;;;;;5107275;28;20481;-68
2024/03/06 07:34:22;;;;;;;9.40;5.03;;;5.80;33.60;;;;;;5107341;28;20674;-67
2024/03/06 07:36:48;;;;;;;6.57;4.43;;;5.80;34.10;;;;;;5108553;28;20204;-68
2024/03/06 07:39:16;;;;;;;10.23;6.00;;;5.90;35.70;;;;;;5103699;28;20570;-69
2024/03/06 07:41:42;;;;;;;7.30;5.07;;;5.90;32.90;;;;;;5079534;28;20911;-69
2024/03/06 07:44:11;;;;;;;7.07;5.93;;;6.00;32.40;;;;;;5086815;28;20419;-68
2024/03/06 07:46:36;;;;;;;7.47;4.30;;;6.10;31.50;;;;;;5088557;28;20752;-69
2024/03/06 07:49:05;;;;;;;10.33;6.33;;;6.10;29.00;;;;;;5086749;28;20509;-69
2024/03/06 07:51:31;;;;;;;10.53;6.23;;;6.10;29.00;;;;;;5087536;28;20266;-69
2024/03/06 07:53:58;;;;;;;8.50;5.93;;;6.00;29.00;;;;;;5087553;28;20427;-69
2024/03/06 07:56:28;;;;;;;6.70;5.10;;;6.00;29.70;;;;;;5086753;28;20453;-70
2024/03/06 07:58:54;;;;;;;6.53;5.87;;;6.00;31.10;;;;;;5087148;28;20427;-69
2024/03/06 08:01:20;;;;;;;7.97;5.77;;;6.10;30.90;;;;;;5088159;28;20435;-70
2024/03/06 08:03:46;;;;;;;6.83;5.20;;;6.10;29.60;;;;;;5087029;28;20469;-69
2024/03/06 08:06:15;;;;;;;6.20;5.57;;;6.10;29.70;;;;;;5086976;28;20419;-69
2024/03/06 08:08:41;;;;;;;8.27;5.70;;;6.20;30.90;;;;;;5089343;28;20831;-69
2024/03/06 08:11:10;;;;;;;6.80;5.27;;;6.20;29.10;;;;;;5091544;28;20539;-69
2024/03/06 08:13:36;;;;;;;6.23;4.90;;;6.20;27.50;;;;;;5091391;28;20805;-69
2024/03/06 08:16:01;;;;;;;6.70;4.43;;;6.20;29.10;;;;;;5073011;28;20467;-69
2024/03/06 08:18:27;;;;;;;8.20;5.40;;;6.10;27.70;;;;;;5073407;28;20209;-69
2024/03/06 08:20:52;;;;;;;8.00;5.53;;;6.10;29.00;;;;;;5090934;28;20204;-67
2024/03/06 08:23:18;;;;;;;15.93;4.80;;;6.10;29.00;;;;;;5073161;28;20185;-68
2024/03/06 08:25:44;;;;;;;8.23;5.50;;;6.20;29.30;;;;;;5091129;28;20670;-69
2024/03/06 08:28:10;;;;;;;8.67;6.30;;;6.20;29.10;;;;;;5091137;28;20212;-70
2024/03/06 08:30:35;;;;;;;10.00;5.27;;;6.10;30.00;;;;;;5073259;28;20216;-69
2024/03/06 08:33:01;;;;;;;9.73;5.90;;;6.20;31.00;;;;;;5090851;28;20473;-74
2024/03/06 08:35:26;;;;;;;8.50;6.00;;;6.30;31.20;;;;;;5090729;28;20255;-71
2024/03/06 08:37:52;;;;;;;7.60;5.37;;;6.40;31.20;;;;;;5090554;28;20216;-75
2024/03/06 08:40:18;;;;;;;6.00;5.40;;;6.40;30.00;;;;;;5091007;28;20251;-73
2024/03/06 08:42:47;;;;;;;6.80;6.03;;;6.60;30.00;;;;;;5091057;28;20226;-69
2024/03/06 08:45:14;;;;;;;7.53;5.50;;;6.70;29.10;;;;;;5091034;28;20655;-70
2024/03/06 08:47:40;;;;;;;8.63;4.90;;;6.60;28.20;;;;;;5090830;28;21040;-70
2024/03/06 08:50:09;;;;;;;8.13;5.83;;;6.60;27.90;;;;;;5090443;28;20513;-70
2024/03/06 08:52:35;;;;;;;6.47;5.47;;;6.50;27.90;;;;;;5090833;28;20474;-68
2024/03/06 08:55:04;;;;;;;7.80;6.00;;;6.50;29.80;;;;;;5090573;28;20914;-69
2024/03/06 08:57:31;;;;;;;10.93;6.60;;;6.60;29.80;;;;;;5072116;28;20419;-69
2024/03/06 08:59:57;;;;;;;7.93;6.23;;;6.60;29.40;;;;;;5071924;28;20581;-69
2024/03/06 09:02:22;;;;;;;7.70;6.50;;;6.60;30.00;;;;;;5091081;28;20504;-68
2024/03/06 09:04:48;;;;;;;11.20;6.10;;;6.60;29.40;;;;;;5089767;28;20824;-69
2024/03/06 09:07:14;;;;;;;6.90;5.17;;;6.50;29.30;;;;;;5090437;28;20181;-69
2024/03/06 09:09:40;;;;;;;12.10;6.77;;;6.50;28.90;;;;;;5090187;28;20203;-69
2024/03/06 09:12:10;;;;;;;7.33;6.33;;;6.40;29.20;;;;;;5071874;28;20438;-69
2024/03/06 09:14:36;;;;;;;7.10;6.00;;;6.40;29.90;;;;;;5089681;28;20828;-69
2024/03/06 09:17:02;;;;;;;10.17;7.27;;;6.50;31.10;;;;;;5090656;28;20456;-70
2024/03/06 09:19:28;;;;;;;8.50;7.10;;;6.40;30.70;;;;;;5089659;28;20920;-70
2024/03/06 09:21:54;;;;;;;7.47;6.70;;;6.40;30.90;;;;;;5089669;28;20435;-70
2024/03/06 09:24:23;;;;;;;7.97;6.10;;;6.60;32.30;;;;;;5090405;28;20418;-69
2024/03/06 09:26:49;;;;;;;7.43;6.17;;;6.50;31.00;;;;;;5090554;28;20682;-69
2024/03/06 09:29:15;;;;;;;6.97;6.27;;;6.50;31.00;;;;;;5089889;28;20503;-69
2024/03/06 09:31:42;;;;;;;9.07;6.80;;;6.50;32.80;;;;;;5090413;28;20447;-70
2024/03/06 09:34:12;;;;;;;7.90;6.50;;;6.60;32.90;;;;;;5089814;28;20428;-69
2024/03/06 09:36:44;;;;;;;11.23;6.80;;;6.70;32.40;;;;;;5089596;28;20512;-69
2024/03/06 09:39:16;;;;;;;10.43;7.13;;;6.70;32.00;;;;;;5089650;28;20482;-69
2024/03/06 09:41:44;;;;;;;9.43;7.00;;;6.70;33.90;;;;;;5089500;28;20789;-70
2024/03/06 09:44:10;;;;;;;8.73;6.97;;;6.80;33.90;;;;;;5089860;28;20423;-70
2024/03/06 09:46:36;;;;;;;10.30;6.07;;;6.80;33.00;;;;;;5090319;28;20912;-69
2024/03/06 09:49:02;;;;;;;8.60;6.20;;;6.70;32.50;;;;;;5093620;28;20435;-68
2024/03/06 09:51:28;;;;;;;8.13;6.63;;;6.80;33.00;;;;;;5093781;28;20441;-69
2024/03/06 09:53:54;;;;;;;8.80;6.90;;;6.90;32.60;;;;;;5093512;28;21079;-68
2024/03/06 09:56:20;;;;;;;6.83;6.10;;;6.90;33.50;;;;;;5093450;28;20504;-69
2024/03/06 09:58:46;;;;;;;9.43;7.53;;;7.00;32.70;;;;;;5093352;28;20180;-69
2024/03/06 10:01:14;;;;;;;8.93;6.80;;;7.10;29.70;;;;;;5093084;28;20952;-69
2024/03/06 10:03:43;;;;;;;10.17;6.47;;;7.20;29.70;;;;;;5093139;28;20418;-68
2024/03/06 10:06:09;;;;;;;13.27;6.70;;;7.30;29.80;;;;;;5092983;28;20797;-69
2024/03/06 10:08:37;;;;;;;8.17;5.93;;;7.20;28.40;;;;;;5093954;28;20500;-69
2024/03/06 10:11:03;;;;;;;7.50;5.80;;;7.20;29.60;;;;;;5093796;28;20437;-68
2024/03/06 10:13:29;;;;;;;9.63;6.07;;;7.20;28.90;;;;;;5092722;28;20416;-70
2024/03/06 10:16:00;;;;;;;7.80;5.97;;;7.20;28.80;;;;;;5092571;28;20201;-69
2024/03/06 10:18:27;;;;;;;8.93;6.63;;;7.10;28.00;;;;;;5074595;28;20185;-70
2024/03/06 10:20:53;;;;;;;9.13;6.37;;;7.00;28.30;;;;;;5092651;28;20520;-69
2024/03/06 10:23:19;;;;;;;7.97;5.23;;;7.00;29.60;;;;;;5091274;28;20950;-69
2024/03/06 10:25:50;;;;;;;9.47;6.73;;;7.00;30.90;;;;;;5092888;28;20195;-70
2024/03/06 10:28:17;;;;;;;6.63;5.40;;;7.10;31.40;;;;;;5092800;28;20425;-68
2024/03/06 10:30:43;;;;;;;11.20;6.03;;;7.00;29.60;;;;;;5092645;28;20484;-68
2024/03/06 10:33:09;;;;;;;10.30;6.93;;;7.00;29.70;;;;;;5091584;28;20420;-69
2024/03/06 10:35:38;;;;;;;7.40;6.10;;;7.00;30.40;;;;;;5089590;28;20512;-72
2024/03/06 10:38:05;;;;;;;6.53;5.83;;;7.10;31.50;;;;;;5088796;28;20455;-69
2024/03/06 10:40:32;;;;;;;11.40;6.57;;;7.10;31.60;;;;;;5087377;28;20816;-69
2024/03/06 10:42:59;;;;;;;10.37;7.00;;;7.00;30.40;;;;;;5088255;28;20480;-71
2024/03/06 10:45:37;;;;;;;13.27;6.97;;;7.10;29.70;;;;;;5070432;28;20570;-69
2024/03/06 10:48:04;;;;;;;7.30;6.57;;;7.20;29.60;;;;;;5088696;28;20450;-69
2024/03/06 10:50:31;;;;;;;10.10;7.00;;;7.20;29.70;;;;;;5088039;28;20445;-69
2024/03/06 10:52:57;;;;;;;9.97;6.87;;;7.20;28.80;;;;;;5087787;28;20488;-69
2024/03/06 10:55:24;;;;;;;10.93;6.27;;;7.30;29.40;;;;;;5088248;28;20529;-70
2024/03/06 10:57:53;;;;;;;14.97;8.13;;;7.40;29.30;;;;;;5087601;28;20520;-70
2024/03/06 11:00:19;;;;;;;7.47;5.80;;;7.50;29.50;;;;;;5087737;28;20520;-69
2024/03/06 11:02:49;;;;;;;9.57;7.40;;;7.50;27.30;;;;;;5088400;28;20792;-69
2024/03/06 11:05:15;;;;;;;7.97;6.80;;;7.40;26.10;;;;;;5090318;28;20484;-70
2024/03/06 11:07:41;;;;;;;7.67;6.87;;;7.30;26.50;;;;;;5092125;28;20904;-72
2024/03/06 11:10:07;;;;;;;10.77;7.67;;;7.10;25.30;;;;;;5091819;28;20497;-71
2024/03/06 11:12:39;;;;;;;7.80;7.00;;;7.00;26.70;;;;;;5091948;28;20769;-71
2024/03/06 11:15:14;;;;;;;10.03;7.10;;;7.00;27.10;;;;;;5091558;28;20455;-70
2024/03/06 11:17:40;;;;;;;11.83;8.30;;;7.00;26.60;;;;;;5091854;28;20418;-70
2024/03/06 11:20:14;;;;;;;8.77;6.77;;;7.10;28.40;;;;;;5091749;28;20429;-70
2024/03/06 11:22:58;;;;;;;9.57;8.17;;;6.90;26.10;;;;;;5091961;28;20174;-69
2024/03/06 11:25:45;;;;;;;10.70;7.67;;;7.00;28.10;;;;;;5091572;28;20418;-71
2024/03/06 11:28:15;;;;;;;9.87;7.33;;;7.00;29.00;;;;;;5068282;28;20516;-70
2024/03/06 11:31:03;;;;;;;11.37;7.93;;;6.80;31.00;;;;;;5070171;28;20445;-73
2024/03/06 11:33:37;;;;;;;10.07;7.43;;;6.90;32.80;;;;;;5050741;28;20435;-71
2024/03/06 11:36:34;;;;;;;11.00;8.20;;;7.00;32.50;;;;;;5070557;28;20456;-70
2024/03/06 11:39:06;;;;;;;10.43;8.63;;;6.90;32.40;;;;;;5083720;28;20421;-71
2024/03/06 11:41:47;;;;;;;12.30;9.17;;;6.90;34.40;;;;;;5076096;28;20441;-71
2024/03/06 11:44:15;;;;;;;8.90;7.00;;;7.00;34.60;;;;;;5072992;28;20420;-70
2024/03/06 11:46:48;;;;;;;9.93;7.43;;;7.00;33.60;;;;;;5073506;28;20450;-69
2024/03/06 11:49:28;;;;;;;8.60;6.50;;;7.10;34.30;;;;;;5072164;28;20424;-70
2024/03/06 11:51:56;;;;;;;10.77;7.80;;;7.10;30.70;;;;;;5054715;28;20460;-71
2024/03/06 11:54:24;;;;;;;11.33;8.70;;;7.00;30.40;;;;;;5072410;28;20423;-71
2024/03/06 11:56:51;;;;;;;8.90;7.17;;;6.90;29.00;;;;;;5072013;28;20460;-72
2024/03/06 11:59:17;;;;;;;9.77;8.30;;;6.80;29.50;;;;;;5071840;28;20802;-72
2024/03/06 12:01:44;;;;;;;9.90;8.80;;;7.00;30.80;;;;;;5072515;28;20424;-69
2024/03/06 12:04:09;;;;;;;12.03;8.23;;;7.10;29.70;;;;;;5075102;28;20420;-70
2024/03/06 12:06:35;;;;;;;12.63;8.23;;;7.10;26.70;;;;;;5075957;28;20907;-71
2024/03/06 12:09:01;;;;;;;11.30;7.80;;;7.00;25.60;;;;;;5075245;28;20182;-70
2024/03/06 12:11:28;;;;;;;10.27;8.40;;;7.20;27.40;;;;;;5075640;28;20254;-69
2024/03/06 12:13:54;;;;;;;11.00;9.47;;;7.20;25.70;;;;;;5075277;28;20939;-70
2024/03/06 12:16:20;;;;;;;12.77;8.00;;;7.30;25.80;;;;;;5075142;28;20457;-70
2024/03/06 12:18:46;;;;;;;13.00;8.50;;;7.40;25.80;;;;;;5075310;28;20431;-70
2024/03/06 12:21:13;;;;;;;15.70;9.27;;;7.40;24.40;;;;;;5075135;28;20241;-70
2024/03/06 12:23:39;;;;;;;14.17;9.07;;;7.30;22.80;;;;;;5075087;28;20437;-69
2024/03/06 12:26:09;;;;;;;9.73;7.67;;;7.40;24.80;;;;;;5075077;28;20459;-70
2024/03/06 12:28:36;;;;;;;10.97;8.50;;;7.70;23.90;;;;;;5057125;28;20203;-69
2024/03/06 12:31:03;;;;;;;11.17;8.70;;;7.90;23.80;;;;;;5074983;28;20485;-70
2024/03/06 12:33:29;;;;;;;15.60;10.30;;;8.00;21.00;;;;;;5074952;28;20426;-74
2024/03/06 12:36:10;;;;;;;14.27;8.00;;;7.90;20.30;;;;;;5081012;28;21029;-69
2024/03/06 12:38:36;;;;;;;11.70;8.83;;;7.80;20.40;;;;;;5088500;28;20184;-69
2024/03/06 12:41:02;;;;;;;11.77;9.00;;;7.80;19.60;;;;;;5076614;28;20441;-70
2024/03/06 12:43:30;;;;;;;14.63;9.67;;;7.80;19.60;;;;;;5074942;28;20415;-69
2024/03/06 12:45:57;;;;;;;10.87;8.70;;;7.70;20.10;;;;;;5057087;28;20433;-70
2024/03/06 12:48:23;;;;;;;12.13;9.13;;;7.80;21.90;;;;;;5075015;28;20497;-71
2024/03/06 12:50:54;;;;;;;13.20;9.03;;;8.00;22.00;;;;;;5080425;28;20433;-70
2024/03/06 12:53:20;;;;;;;9.90;8.20;;;8.00;20.90;;;;;;5077479;28;20767;-70